createdAt,value
2023-05-15T00:01:25.794Z,6.75
2023-05-15T00:03:55.108Z,11.18
2023-05-15T00:06:23.596Z,6.78
2023-05-15T00:08:53.098Z,7.28
2023-05-15T00:11:23.513Z,9.88
2023-05-15T00:13:51.667Z,8.02
2023-05-15T00:16:20.008Z,8.98
2023-05-15T00:18:48.214Z,10.07
2023-05-15T00:21:17.083Z,7.40
2023-05-15T00:23:47.463Z,10.77
2023-05-15T00:26:16.980Z,6.28
2023-05-15T00:28:45.088Z,6.90
2023-05-15T00:31:15.090Z,8.90
2023-05-15T00:33:43.437Z,6.00
2023-05-15T00:36:11.667Z,7.65
2023-05-15T00:38:39.794Z,9.90
2023-05-15T00:41:08.225Z,7.63
2023-05-15T00:43:37.992Z,10.32
2023-05-15T00:46:06.211Z,8.88
2023-05-15T00:48:34.818Z,12.60
2023-05-15T00:51:03.424Z,7.10
2023-05-15T00:53:31.705Z,9.85
2023-05-15T00:56:00.440Z,7.85
2023-05-15T00:58:29.447Z,6.45
2023-05-15T01:00:58.952Z,9.82
2023-05-15T01:03:27.095Z,7.65
2023-05-15T01:05:55.239Z,8.48
2023-05-15T01:08:27.958Z,8.43
2023-05-15T01:10:57.145Z,7.38
2023-05-15T01:13:25.937Z,7.07
2023-05-15T01:15:55.735Z,12.85
2023-05-15T01:18:26.115Z,8.88
2023-05-15T01:21:08.450Z,11.10
2023-05-15T01:23:47.348Z,7.97
2023-05-15T01:26:36.672Z,8.80
2023-05-15T01:29:10.480Z,7.72
2023-05-15T01:31:39.820Z,7.03
2023-05-15T01:34:09.927Z,7.10
2023-05-15T01:36:40.724Z,9.25
2023-05-15T01:39:09.342Z,9.50
2023-05-15T01:41:43.388Z,9.45
2023-05-15T01:44:17.226Z,10.75
2023-05-15T01:46:47.792Z,12.13
2023-05-15T01:49:19.012Z,11.00
2023-05-15T01:51:50.888Z,12.90
2023-05-15T01:54:19.534Z,14.70
2023-05-15T01:56:47.687Z,10.45
2023-05-15T01:59:18.135Z,9.40
2023-05-15T02:01:46.508Z,11.27
2023-05-15T02:04:15.754Z,9.00
2023-05-15T02:06:43.963Z,12.73
2023-05-15T02:09:12.812Z,9.52
2023-05-15T02:11:41.486Z,9.93
2023-05-15T02:14:10.464Z,8.55
2023-05-15T02:16:40.094Z,9.68
2023-05-15T02:19:08.430Z,8.25
2023-05-15T02:21:36.714Z,9.02
2023-05-15T02:24:05.268Z,13.93
2023-05-15T02:26:37.986Z,10.45
2023-05-15T02:29:12.353Z,8.70
2023-05-15T02:31:48.079Z,11.73
2023-05-15T02:34:19.584Z,11.23
2023-05-15T02:36:50.259Z,12.57
2023-05-15T02:39:18.863Z,15.38
2023-05-15T02:41:48.364Z,8.57
2023-05-15T02:44:16.948Z,12.13
2023-05-15T02:46:46.885Z,10.30
2023-05-15T02:49:15.282Z,8.38
2023-05-15T02:51:43.755Z,10.02
2023-05-15T02:54:11.961Z,10.63
2023-05-15T02:56:40.310Z,14.23
2023-05-15T02:59:08.427Z,8.80
2023-05-15T03:01:36.678Z,9.27
2023-05-15T03:04:06.468Z,9.88
2023-05-15T03:06:34.602Z,12.88
2023-05-15T03:09:02.780Z,12.00
2023-05-15T03:11:30.877Z,9.93
2023-05-15T03:14:00.213Z,15.85
2023-05-15T03:16:28.439Z,10.60
2023-05-15T03:18:56.654Z,16.17
2023-05-15T03:21:26.390Z,11.30
2023-05-15T03:23:54.545Z,13.38
2023-05-15T03:26:23.153Z,10.77
2023-05-15T03:28:51.306Z,9.68
2023-05-15T03:31:19.537Z,9.82
2023-05-15T03:33:49.996Z,11.77
2023-05-15T03:36:18.150Z,14.13
2023-05-15T03:38:47.609Z,9.13
2023-05-15T03:41:15.726Z,14.73
2023-05-15T03:43:43.870Z,13.45
2023-05-15T03:46:12.795Z,9.18
2023-05-15T03:48:41.284Z,9.25
2023-05-15T03:51:10.550Z,10.20
2023-05-15T03:53:38.709Z,8.98
2023-05-15T03:56:08.416Z,7.75
2023-05-15T03:58:36.561Z,9.52
2023-05-15T04:01:04.764Z,9.85
2023-05-15T04:03:32.910Z,8.25
2023-05-15T04:06:01.086Z,13.55
2023-05-15T04:08:29.258Z,9.55
2023-05-15T04:10:57.452Z,9.82
2023-05-15T04:13:26.940Z,13.45
2023-05-15T04:15:55.210Z,16.60
2023-05-15T04:18:23.578Z,11.93
2023-05-15T04:20:52.625Z,12.05
2023-05-15T04:23:20.965Z,8.95
2023-05-15T04:25:49.081Z,9.02
2023-05-15T04:28:17.546Z,11.55
2023-05-15T04:30:47.037Z,9.73
2023-05-15T04:33:15.253Z,10.25
2023-05-15T04:35:43.803Z,12.23
2023-05-15T04:38:11.942Z,11.25
2023-05-15T04:40:40.046Z,9.07
2023-05-15T04:43:08.460Z,11.68
2023-05-15T04:45:36.728Z,14.55
2023-05-15T04:48:06.832Z,8.88
2023-05-15T04:50:35.027Z,14.23
2023-05-15T04:53:03.606Z,9.60
2023-05-15T04:55:33.060Z,8.18
2023-05-15T04:58:01.829Z,11.45
2023-05-15T05:00:31.081Z,14.45
2023-05-15T05:02:59.250Z,9.98
2023-05-15T05:05:28.905Z,10.18
2023-05-15T05:07:56.997Z,8.13
2023-05-15T05:10:25.178Z,15.50
2023-05-15T05:12:53.661Z,9.65
2023-05-15T05:15:21.894Z,9.77
2023-05-15T05:17:50.089Z,12.65
2023-05-15T05:20:18.462Z,12.15
2023-05-15T05:22:47.978Z,7.60
2023-05-15T05:25:16.277Z,14.02
2023-05-15T05:27:44.638Z,11.70
2023-05-15T05:30:13.654Z,14.55
2023-05-15T05:32:41.834Z,11.95
2023-05-15T05:35:10.579Z,7.22
2023-05-15T05:37:40.809Z,7.38
2023-05-15T05:40:12.225Z,8.27
2023-05-15T05:42:40.360Z,12.50
2023-05-15T05:45:09.376Z,10.63
2023-05-15T05:47:37.526Z,8.05
2023-05-15T05:50:06.492Z,10.43
2023-05-15T05:52:34.617Z,6.68
2023-05-15T05:55:03.192Z,11.27
2023-05-15T05:57:33.010Z,8.15
2023-05-15T06:00:01.162Z,6.82
2023-05-15T06:02:29.452Z,6.55
2023-05-15T06:07:25.693Z,10.05
2023-05-15T06:09:53.857Z,6.68
2023-05-15T06:12:23.136Z,8.65
2023-05-15T06:14:52.723Z,8.63
2023-05-15T06:17:21.309Z,7.07
2023-05-15T06:19:49.428Z,12.52
2023-05-15T06:22:17.559Z,11.40
2023-05-15T06:24:45.960Z,9.10
2023-05-15T06:27:14.064Z,6.50
2023-05-15T06:29:42.210Z,11.13
2023-05-15T06:32:11.706Z,10.63
2023-05-15T06:34:39.814Z,15.85
2023-05-15T06:37:07.899Z,12.32
2023-05-15T06:39:36.684Z,7.80
2023-05-15T06:42:05.030Z,8.07
2023-05-15T06:44:33.184Z,10.40
2023-05-15T06:47:01.699Z,14.43
2023-05-15T06:49:31.395Z,13.02
2023-05-15T06:51:59.503Z,9.32
2023-05-15T06:54:27.723Z,15.60
2023-05-15T06:56:55.860Z,14.00
2023-05-15T06:59:24.031Z,12.93
2023-05-15T07:01:52.176Z,16.70
2023-05-15T07:04:20.347Z,26.15
2023-05-15T07:06:50.343Z,18.13
2023-05-15T07:09:18.511Z,15.82
2023-05-15T07:11:46.638Z,16.85
2023-05-15T07:14:15.065Z,27.60
2023-05-15T07:16:43.187Z,26.95
2023-05-15T07:19:11.386Z,40.53
2023-05-15T07:21:40.490Z,36.78
2023-05-15T07:24:10.151Z,27.60
2023-05-15T07:26:46.936Z,37.72
2023-05-15T07:29:25.443Z,38.97
2023-05-15T07:31:53.669Z,41.40
2023-05-15T07:34:21.880Z,40.97
2023-05-15T07:36:50.022Z,54.30
2023-05-15T07:39:19.603Z,56.78
2023-05-15T07:41:48.098Z,73.20
2023-05-15T07:44:16.249Z,77.00
2023-05-15T07:46:45.689Z,73.47
2023-05-15T07:49:14.036Z,72.43
2023-05-15T07:51:42.720Z,71.72
2023-05-15T07:54:10.953Z,64.35
2023-05-15T07:56:40.450Z,64.10
2023-05-15T07:59:09.557Z,68.45
2023-05-15T08:01:37.766Z,71.38
2023-05-15T08:04:09.087Z,75.25
2023-05-15T08:06:38.589Z,65.97
2023-05-15T08:09:06.734Z,65.00
2023-05-15T08:11:34.894Z,65.65
2023-05-15T08:14:04.451Z,62.85
2023-05-15T08:16:32.661Z,71.28
2023-05-15T08:19:03.628Z,66.28
2023-05-15T08:21:32.389Z,75.35
2023-05-15T08:24:01.520Z,68.47
2023-05-15T08:26:29.659Z,61.63
2023-05-15T08:28:58.001Z,69.10
2023-05-15T08:31:27.566Z,62.78
2023-05-15T08:33:55.717Z,65.95
2023-05-15T08:36:24.031Z,57.47
2023-05-15T08:38:52.341Z,62.90
2023-05-15T08:41:39.874Z,53.58
2023-05-15T08:44:10.600Z,56.25
2023-05-15T08:46:40.396Z,49.42
2023-05-15T08:49:14.135Z,55.72
2023-05-15T08:51:42.444Z,50.72
2023-05-15T08:54:10.823Z,60.88
2023-05-15T08:56:39.272Z,57.95
2023-05-15T08:59:07.457Z,53.78
2023-05-15T09:01:35.728Z,54.53
2023-05-15T09:04:05.875Z,55.08
2023-05-15T09:06:36.306Z,51.85
2023-05-15T09:09:15.207Z,60.53
2023-05-15T09:11:46.420Z,54.95
2023-05-15T09:14:14.560Z,54.90
2023-05-15T09:16:42.699Z,63.58
2023-05-15T09:19:12.225Z,53.80
2023-05-15T09:21:40.335Z,57.65
2023-05-15T09:24:20.219Z,60.83
2023-05-15T09:26:49.418Z,58.05
2023-05-15T09:29:19.016Z,52.90
2023-05-15T09:31:48.393Z,54.95
2023-05-15T09:34:18.320Z,58.28
2023-05-15T09:36:46.671Z,64.20
2023-05-15T09:39:14.820Z,58.25
2023-05-15T09:41:45.179Z,67.10
2023-05-15T09:44:21.833Z,63.85
2023-05-15T09:46:51.309Z,56.40
2023-05-15T09:49:21.005Z,55.58
2023-05-15T09:51:50.477Z,59.22
2023-05-15T09:54:19.819Z,62.97
2023-05-15T09:56:48.920Z,53.67
2023-05-15T09:59:19.257Z,64.05
2023-05-15T10:01:47.673Z,53.28
2023-05-15T10:04:16.086Z,52.72
2023-05-15T10:06:48.328Z,55.85
2023-05-15T10:09:17.106Z,53.72
2023-05-15T10:11:46.467Z,50.47
2023-05-15T10:14:15.249Z,52.53
2023-05-15T10:16:43.805Z,59.90
2023-05-15T10:19:14.143Z,54.40
2023-05-15T10:21:43.259Z,55.05
2023-05-15T10:24:13.268Z,58.25
2023-05-15T10:26:42.367Z,58.95
2023-05-15T10:29:12.019Z,62.60
2023-05-15T10:31:41.152Z,52.67
2023-05-15T10:34:10.207Z,67.72
2023-05-15T10:36:39.685Z,55.08
2023-05-15T10:39:09.134Z,60.72
2023-05-15T10:41:40.808Z,53.85
2023-05-15T10:44:08.965Z,52.05
2023-05-15T10:46:37.540Z,53.42
2023-05-15T10:49:06.505Z,53.72
2023-05-15T10:51:36.874Z,60.60
2023-05-15T10:54:05.908Z,61.00
2023-05-15T10:56:35.064Z,64.80
2023-05-15T10:59:09.220Z,52.28
2023-05-15T11:01:38.654Z,59.08
2023-05-15T11:04:11.697Z,54.28
2023-05-15T11:09:36.913Z,51.28
2023-05-15T11:12:06.419Z,60.80
2023-05-15T11:14:37.560Z,56.70
2023-05-15T11:17:07.637Z,60.20
2023-05-15T11:19:58.757Z,50.83
2023-05-15T11:22:36.011Z,49.58
2023-05-15T11:25:06.228Z,54.85
2023-05-15T11:27:41.659Z,48.63
2023-05-15T11:30:20.695Z,41.13
2023-05-15T11:32:56.014Z,43.88
2023-05-15T11:35:27.248Z,39.28
2023-05-15T11:37:57.291Z,42.63
2023-05-15T11:40:27.380Z,45.03
2023-05-15T11:43:03.615Z,41.83
2023-05-15T11:45:35.012Z,50.17
2023-05-15T11:48:04.400Z,35.20
2023-05-15T11:50:34.021Z,43.17
2023-05-15T11:53:06.942Z,38.28
2023-05-15T11:58:04.331Z,43.17
2023-05-15T12:00:34.017Z,38.65
2023-05-15T12:03:03.910Z,28.38
2023-05-15T12:05:32.220Z,25.00
2023-05-15T12:08:00.497Z,22.42
2023-05-15T12:10:28.673Z,19.98
2023-05-15T12:12:56.813Z,22.75
2023-05-15T12:15:25.027Z,26.08
2023-05-15T12:17:54.626Z,25.13
2023-05-15T12:20:22.973Z,31.17
2023-05-15T12:22:51.302Z,29.08
2023-05-15T12:25:19.398Z,23.65
2023-05-15T12:27:47.546Z,24.05
2023-05-15T12:30:16.197Z,19.42
2023-05-15T12:32:44.748Z,24.70
2023-05-15T12:35:14.456Z,16.58
2023-05-15T12:37:43.309Z,18.33
2023-05-15T12:40:12.395Z,17.27
2023-05-15T12:42:41.771Z,21.17
2023-05-15T12:45:17.317Z,17.48
2023-05-15T12:47:46.561Z,13.45
2023-05-15T12:50:17.248Z,17.38
2023-05-15T12:52:56.491Z,15.73
2023-05-15T12:55:26.101Z,14.43
2023-05-15T12:57:54.446Z,16.98
2023-05-15T13:00:23.423Z,17.40
2023-05-15T13:02:53.589Z,13.77
2023-05-15T13:05:24.418Z,16.13
2023-05-15T13:07:53.046Z,14.77
2023-05-15T13:10:23.403Z,11.25
2023-05-15T13:12:52.982Z,11.77
2023-05-15T13:15:27.339Z,10.30
2023-05-15T13:17:59.160Z,14.13
2023-05-15T13:20:29.341Z,20.17
2023-05-15T13:22:57.475Z,21.02
2023-05-15T13:25:25.721Z,21.92
2023-05-15T13:27:54.055Z,21.25
2023-05-15T13:30:22.145Z,21.02
2023-05-15T13:32:50.360Z,24.60
2023-05-15T13:35:18.553Z,24.27
2023-05-15T13:37:48.370Z,25.73
2023-05-15T13:40:16.480Z,21.42
2023-05-15T13:42:45.376Z,23.00
2023-05-15T13:45:15.166Z,26.20
2023-05-15T13:47:43.757Z,25.08
2023-05-15T13:50:13.339Z,29.08
2023-05-15T13:52:41.956Z,23.60
2023-05-15T13:55:12.497Z,17.35
2023-05-15T13:57:41.562Z,15.60
2023-05-15T14:00:12.685Z,13.77
2023-05-15T14:02:41.001Z,16.45
2023-05-15T14:05:10.034Z,15.05
2023-05-15T14:07:38.314Z,18.35
2023-05-15T14:10:07.714Z,16.30
2023-05-15T14:12:37.773Z,18.77
2023-05-15T14:15:06.802Z,17.85
2023-05-15T14:17:35.564Z,17.05
2023-05-15T14:20:05.128Z,18.77
2023-05-15T14:22:33.433Z,17.65
2023-05-15T14:25:01.560Z,16.90
2023-05-15T14:27:29.814Z,23.45
2023-05-15T14:29:59.358Z,24.27
2023-05-15T14:32:27.496Z,17.10
2023-05-15T14:34:59.777Z,21.83
2023-05-15T14:37:28.539Z,19.80
2023-05-15T14:39:56.659Z,20.90
2023-05-15T14:42:24.777Z,23.10
2023-05-15T14:44:52.892Z,16.48
2023-05-15T14:47:22.594Z,18.92
2023-05-15T14:49:50.745Z,17.27
2023-05-15T14:52:18.960Z,16.67
2023-05-15T14:54:56.937Z,12.15
2023-05-15T14:57:35.294Z,13.32
2023-05-15T15:00:04.472Z,12.50
2023-05-15T15:02:34.210Z,18.48
2023-05-15T15:05:02.463Z,15.93
2023-05-15T15:07:31.118Z,17.15
2023-05-15T15:09:59.372Z,14.50
2023-05-15T15:12:27.908Z,12.88
2023-05-15T15:14:56.001Z,11.02
2023-05-15T15:17:24.093Z,9.88
2023-05-15T15:19:53.889Z,11.40
2023-05-15T15:22:21.986Z,10.45
2023-05-15T15:24:50.119Z,14.30
2023-05-15T15:27:18.337Z,10.45
2023-05-15T15:29:47.109Z,10.45
2023-05-15T15:32:15.622Z,8.05
2023-05-15T15:34:43.796Z,14.98
2023-05-15T15:37:16.261Z,16.98
2023-05-15T15:39:44.398Z,12.75
2023-05-15T15:42:12.478Z,15.13
2023-05-15T15:44:40.686Z,10.48
2023-05-15T15:47:08.927Z,12.07
2023-05-15T15:49:37.071Z,7.90
2023-05-15T15:52:05.376Z,6.63
2023-05-15T15:54:34.884Z,8.27
2023-05-15T15:57:03.074Z,12.85
2023-05-15T15:59:31.331Z,17.38
2023-05-15T16:01:59.431Z,6.38
2023-05-15T16:04:27.542Z,10.57
2023-05-15T16:06:55.785Z,6.32
2023-05-15T16:09:24.149Z,7.07
2023-05-15T16:11:53.987Z,9.98
2023-05-15T16:14:22.223Z,8.38
2023-05-15T16:16:50.528Z,6.97
2023-05-15T16:19:18.667Z,8.38
2023-05-15T16:21:46.868Z,7.90
2023-05-15T16:24:14.976Z,8.20
2023-05-15T16:26:43.145Z,9.85
2023-05-15T16:29:15.448Z,8.02
2023-05-15T16:31:44.372Z,8.52
2023-05-15T16:34:12.589Z,6.35
2023-05-15T16:36:40.783Z,10.93
2023-05-15T16:39:09.059Z,9.00
2023-05-15T16:41:37.300Z,7.93
2023-05-15T16:44:09.470Z,12.77
2023-05-15T16:46:39.162Z,15.67
2023-05-15T16:49:07.317Z,11.48
2023-05-15T16:51:35.486Z,10.18
2023-05-15T16:54:03.631Z,13.30
2023-05-15T16:56:31.797Z,11.55
2023-05-15T16:58:59.902Z,10.70
2023-05-15T17:01:28.012Z,11.85
2023-05-15T17:03:57.675Z,14.05
2023-05-15T17:06:26.095Z,17.27
2023-05-15T17:08:54.198Z,9.43
2023-05-15T17:11:22.575Z,14.68
2023-05-15T17:13:50.704Z,12.40
2023-05-15T17:16:18.870Z,14.95
2023-05-15T17:18:47.054Z,12.63
2023-05-15T17:21:16.686Z,14.02
2023-05-15T17:23:44.842Z,11.32
2023-05-15T17:26:12.995Z,21.00
2023-05-15T17:28:41.287Z,15.27
2023-05-15T17:31:13.714Z,16.80
2023-05-15T17:33:41.891Z,14.32
2023-05-15T17:36:10.515Z,12.85
2023-05-15T17:38:40.038Z,20.30
2023-05-15T17:41:08.354Z,10.80
2023-05-15T17:43:36.463Z,12.27
2023-05-15T17:46:05.745Z,9.55
2023-05-15T17:48:34.539Z,16.52
2023-05-15T17:51:02.749Z,10.63
2023-05-15T17:53:30.834Z,11.10
2023-05-15T17:56:01.105Z,11.07
2023-05-15T17:58:29.221Z,16.02
2023-05-15T18:00:57.392Z,19.88
2023-05-15T18:03:25.649Z,17.33
2023-05-15T18:05:53.925Z,12.45
2023-05-15T18:08:22.080Z,12.38
2023-05-15T18:10:50.163Z,13.32
2023-05-15T18:13:19.915Z,9.40
2023-05-15T18:15:48.985Z,11.85
2023-05-15T18:18:17.165Z,11.77
2023-05-15T18:20:45.268Z,12.93
2023-05-15T18:23:13.613Z,12.38
2023-05-15T18:25:42.018Z,16.55
2023-05-15T18:28:10.173Z,17.77
2023-05-15T18:30:39.677Z,15.52
2023-05-15T18:33:07.810Z,14.25
2023-05-15T18:35:36.644Z,13.73
2023-05-15T18:38:05.012Z,15.75
2023-05-15T18:40:33.260Z,13.27
2023-05-15T18:43:01.356Z,13.95
2023-05-15T18:45:29.496Z,22.48
2023-05-15T18:47:59.026Z,21.65
2023-05-15T18:50:27.650Z,24.23
2023-05-15T18:52:55.927Z,20.75
2023-05-15T18:55:24.254Z,20.90
2023-05-15T18:57:52.487Z,21.05
2023-05-15T19:00:36.512Z,18.08
2023-05-15T19:03:07.279Z,22.45
2023-05-15T19:05:35.556Z,16.30
2023-05-15T19:08:04.365Z,16.35
2023-05-15T19:10:32.615Z,17.55
2023-05-15T19:13:01.179Z,20.52
2023-05-15T19:15:29.343Z,17.45
2023-05-15T19:17:57.467Z,19.27
2023-05-15T19:20:27.264Z,18.92
2023-05-15T19:22:55.604Z,17.58
2023-05-15T19:25:24.049Z,17.90
2023-05-15T19:27:52.157Z,17.17
2023-05-15T19:30:20.345Z,22.40
2023-05-15T19:32:48.533Z,18.02
2023-05-15T19:35:16.880Z,35.83
2023-05-15T19:37:46.377Z,18.70
2023-05-15T19:40:15.028Z,19.63
2023-05-15T19:42:43.142Z,25.15
2023-05-15T19:45:12.166Z,23.77
2023-05-15T19:47:40.358Z,23.00
2023-05-15T19:50:10.030Z,21.17
2023-05-15T19:52:39.036Z,22.70
2023-05-15T19:55:09.598Z,26.83
2023-05-15T19:57:40.128Z,20.25
2023-05-15T20:00:10.342Z,25.25
2023-05-15T20:02:38.591Z,26.67
2023-05-15T20:05:07.506Z,20.02
2023-05-15T20:07:35.615Z,20.95
2023-05-15T20:10:03.836Z,24.98
2023-05-15T20:12:33.334Z,26.17
2023-05-15T20:15:01.448Z,26.38
2023-05-15T20:17:29.677Z,24.38
2023-05-15T20:19:59.134Z,27.35
2023-05-15T20:22:27.268Z,27.05
2023-05-15T20:24:55.389Z,24.88
2023-05-15T20:27:23.740Z,31.38
2023-05-15T20:29:53.271Z,28.95
2023-05-15T20:32:21.358Z,27.42
2023-05-15T20:34:50.229Z,31.08
2023-05-15T20:37:18.365Z,29.55
2023-05-15T20:39:46.507Z,27.15
2023-05-15T20:42:14.912Z,30.95
2023-05-15T20:44:43.037Z,28.58
2023-05-15T20:47:12.553Z,28.33
2023-05-15T20:49:40.678Z,30.52
2023-05-15T20:52:08.885Z,29.27
2023-05-15T20:54:36.970Z,32.33
2023-05-15T20:57:05.343Z,35.20
2023-05-15T20:59:33.923Z,31.80
2023-05-15T21:02:02.057Z,31.52
2023-05-15T21:04:31.909Z,26.42
2023-05-15T21:07:00.051Z,30.25
2023-05-15T21:09:28.149Z,26.85
2023-05-15T21:11:56.258Z,31.55
2023-05-15T21:14:24.345Z,28.55
2023-05-15T21:16:52.519Z,32.20
2023-05-15T21:19:20.896Z,34.05
2023-05-15T21:21:50.874Z,32.88
2023-05-15T21:24:19.008Z,30.00
2023-05-15T21:26:47.215Z,30.15
2023-05-15T21:29:15.611Z,29.52
2023-05-15T21:31:43.929Z,33.85
2023-05-15T21:34:12.877Z,29.52
2023-05-15T21:36:41.067Z,61.67
2023-05-15T21:39:10.746Z,30.00
2023-05-15T21:41:38.864Z,32.10
2023-05-15T21:44:07.133Z,36.00
2023-05-15T21:46:35.368Z,28.60
2023-05-15T21:49:03.510Z,32.67
2023-05-15T21:51:31.663Z,30.33
2023-05-15T21:53:59.846Z,31.88
2023-05-15T21:56:29.332Z,34.10
2023-05-15T21:58:58.226Z,27.80
2023-05-15T22:01:26.355Z,28.38
2023-05-15T22:03:54.611Z,30.52
2023-05-15T22:06:23.069Z,36.50
2023-05-15T22:08:51.228Z,31.38
2023-05-15T22:11:19.732Z,30.95
2023-05-15T22:13:49.210Z,38.25
2023-05-15T22:16:17.350Z,36.53
2023-05-15T22:18:47.681Z,29.35
2023-05-15T22:21:16.104Z,31.63
2023-05-15T22:23:44.433Z,31.30
2023-05-15T22:26:13.037Z,31.10
2023-05-15T22:28:42.039Z,31.60
2023-05-15T22:31:12.418Z,35.70
2023-05-15T22:33:40.638Z,32.75
2023-05-15T22:36:09.877Z,34.83
2023-05-15T22:38:37.999Z,36.95
2023-05-15T22:41:06.853Z,33.42
2023-05-15T22:43:34.984Z,35.45
2023-05-15T22:46:03.150Z,34.40
2023-05-15T22:48:32.712Z,36.47
2023-05-15T22:51:00.856Z,37.05
2023-05-15T22:53:30.097Z,41.58
2023-05-15T22:55:58.189Z,41.20
2023-05-15T22:58:26.351Z,34.90
2023-05-15T23:00:54.585Z,36.45
2023-05-15T23:03:22.839Z,33.35
2023-05-15T23:05:53.352Z,36.50
2023-05-15T23:08:21.465Z,36.17
2023-05-15T23:10:49.588Z,36.92
2023-05-15T23:13:17.715Z,35.38
2023-05-15T23:15:46.541Z,43.75
2023-05-15T23:18:14.806Z,38.55
2023-05-15T23:20:42.929Z,37.90
2023-05-15T23:23:12.420Z,38.88
2023-05-15T23:25:40.645Z,34.15
2023-05-15T23:28:08.743Z,34.78
2023-05-15T23:30:36.843Z,38.45
2023-05-15T23:33:05.132Z,34.38
2023-05-15T23:35:33.293Z,33.78
2023-05-15T23:38:01.466Z,36.83
2023-05-15T23:40:31.575Z,39.45
2023-05-15T23:42:59.709Z,35.72
2023-05-15T23:45:27.925Z,25.80
2023-05-15T23:47:56.136Z,30.85
2023-05-15T23:50:24.798Z,24.95
2023-05-15T23:52:53.209Z,29.13
2023-05-15T23:55:21.316Z,26.45
2023-05-15T23:57:50.854Z,28.30
